createdAt,value
2023-05-23T00:00:43.349Z,54.16
2023-05-23T00:01:43.652Z,53.22
2023-05-23T00:02:43.442Z,53.32
2023-05-23T00:03:43.475Z,53.63
2023-05-23T00:04:43.333Z,54.33
2023-05-23T00:05:43.328Z,53.34
2023-05-23T00:06:43.324Z,53.12
2023-05-23T00:07:43.323Z,53.42
2023-05-23T00:08:43.331Z,53.63
2023-05-23T00:09:43.320Z,53.42
2023-05-23T00:10:43.310Z,52.94
2023-05-23T00:11:43.314Z,53.42
2023-05-23T00:12:43.303Z,53.63
2023-05-23T00:13:43.394Z,53.02
2023-05-23T00:14:43.299Z,53.72
2023-05-23T00:15:43.304Z,53.32
2023-05-23T00:16:43.305Z,53.52
2023-05-23T00:17:43.331Z,53.34
2023-05-23T00:18:43.343Z,52.51
2023-05-23T00:19:43.281Z,53.25
2023-05-23T00:20:43.379Z,53.14
2023-05-23T00:21:43.282Z,52.92
2023-05-23T00:22:43.415Z,53.55
2023-05-23T00:23:43.268Z,53.75
2023-05-23T00:24:43.264Z,53.65
2023-05-23T00:25:43.326Z,53.75
2023-05-23T00:26:43.262Z,53.45
2023-05-23T00:27:43.284Z,53.34
2023-05-23T00:28:43.248Z,53.45
2023-05-23T00:29:43.334Z,53.34
2023-05-23T00:30:43.310Z,54.25
2023-05-23T00:31:43.269Z,53.96
2023-05-23T00:32:43.268Z,53.96
2023-05-23T00:33:43.271Z,53.96
2023-05-23T00:34:43.229Z,53.75
2023-05-23T00:35:43.227Z,54.25
2023-05-23T00:36:43.217Z,53.98
2023-05-23T00:37:43.225Z,53.88
2023-05-23T00:38:43.243Z,54.18
2023-05-23T00:39:43.206Z,54.08
2023-05-23T00:40:43.208Z,54.89
2023-05-23T00:41:43.202Z,54.99
2023-05-23T00:42:43.200Z,54.89
2023-05-23T00:43:43.197Z,54.48
2023-05-23T00:44:43.192Z,55.09
2023-05-23T00:45:43.360Z,54.99
2023-05-23T00:46:43.218Z,55.19
2023-05-23T00:47:43.196Z,54.58
2023-05-23T00:48:43.180Z,54.89
2023-05-23T00:49:43.173Z,54.38
2023-05-23T00:50:43.177Z,54.28
2023-05-23T00:51:43.218Z,54.28
2023-05-23T00:52:43.161Z,54.38
2023-05-23T00:53:43.158Z,54.58
2023-05-23T00:54:43.157Z,54.38
2023-05-23T00:55:43.330Z,55.19
2023-05-23T00:56:43.147Z,54.28
2023-05-23T00:57:43.146Z,55.09
2023-05-23T00:58:43.138Z,54.38
2023-05-23T00:59:43.135Z,54.28
2023-05-23T01:00:43.136Z,54.28
2023-05-23T01:01:43.343Z,54.99
2023-05-23T01:02:43.177Z,54.68
2023-05-23T01:03:43.204Z,54.89
2023-05-23T01:04:43.119Z,55.29
2023-05-23T01:05:43.248Z,54.00
2023-05-23T01:06:43.103Z,54.48
2023-05-23T01:07:43.099Z,53.98
2023-05-23T01:08:43.107Z,53.88
2023-05-23T01:09:43.090Z,54.38
2023-05-23T01:10:43.087Z,54.18
2023-05-23T01:11:43.085Z,53.98
2023-05-23T01:12:43.078Z,54.18
2023-05-23T01:13:43.081Z,54.28
2023-05-23T01:14:43.073Z,54.18
2023-05-23T01:15:43.279Z,54.79
2023-05-23T01:16:43.102Z,54.58
2023-05-23T01:17:43.159Z,54.79
2023-05-23T01:18:43.056Z,54.99
2023-05-23T01:19:43.063Z,54.68
2023-05-23T01:20:43.053Z,54.89
2023-05-23T01:21:43.065Z,54.99
2023-05-23T01:22:43.044Z,54.79
2023-05-23T01:23:43.032Z,54.48
2023-05-23T01:24:43.028Z,54.48
2023-05-23T01:25:43.072Z,54.89
2023-05-23T01:26:43.021Z,55.39
2023-05-23T01:27:43.061Z,55.41
2023-05-23T01:28:43.013Z,54.99
2023-05-23T01:29:43.010Z,55.19
2023-05-23T01:30:43.004Z,54.89
2023-05-23T01:31:43.050Z,54.99
2023-05-23T01:32:43.059Z,55.49
2023-05-23T01:33:42.997Z,54.89
2023-05-23T01:34:42.994Z,55.79
2023-05-23T01:35:42.991Z,55.92
2023-05-23T01:36:43.034Z,56.90
2023-05-23T01:37:42.980Z,57.54
2023-05-23T01:38:43.064Z,55.72
2023-05-23T01:39:42.975Z,55.72
2023-05-23T01:40:42.966Z,56.43
2023-05-23T01:41:42.963Z,58.25
2023-05-23T01:42:42.958Z,58.75
2023-05-23T01:43:42.956Z,59.35
2023-05-23T01:44:42.972Z,60.57
2023-05-23T01:45:43.110Z,60.87
2023-05-23T01:46:42.945Z,60.19
2023-05-23T01:47:42.959Z,57.46
2023-05-23T01:48:42.936Z,56.96
2023-05-23T01:49:43.018Z,57.97
2023-05-23T01:50:42.934Z,58.17
2023-05-23T01:51:42.942Z,61.40
2023-05-23T01:52:42.923Z,58.00
2023-05-23T01:53:42.919Z,59.81
2023-05-23T01:54:42.919Z,62.21
2023-05-23T01:55:42.918Z,60.22
2023-05-23T01:56:42.909Z,62.14
2023-05-23T01:57:42.915Z,61.23
2023-05-23T01:58:42.897Z,61.63
2023-05-23T01:59:42.901Z,62.24
2023-05-23T02:00:42.889Z,62.64
2023-05-23T02:01:42.916Z,59.94
2023-05-23T02:02:42.946Z,61.23
2023-05-23T02:03:42.963Z,58.70
2023-05-23T02:04:42.880Z,60.52
2023-05-23T02:05:43.372Z,61.73
2023-05-23T02:06:42.881Z,60.12
2023-05-23T02:07:42.858Z,62.24
2023-05-23T02:08:42.861Z,61.53
2023-05-23T02:09:42.860Z,61.53
2023-05-23T02:10:42.870Z,61.63
2023-05-23T02:11:42.874Z,60.72
2023-05-23T02:12:42.846Z,61.23
2023-05-23T02:13:42.848Z,61.76
2023-05-23T02:14:42.835Z,61.53
2023-05-23T02:15:42.974Z,61.13
2023-05-23T02:16:42.879Z,61.66
2023-05-23T02:17:42.885Z,62.14
2023-05-23T02:18:42.834Z,62.77
2023-05-23T02:19:42.818Z,61.36
2023-05-23T02:20:42.836Z,62.67
2023-05-23T02:21:42.903Z,62.37
2023-05-23T02:22:42.802Z,62.37
2023-05-23T02:23:42.812Z,63.78
2023-05-23T02:24:42.799Z,63.38
2023-05-23T02:25:43.089Z,64.39
2023-05-23T02:26:42.793Z,62.57
2023-05-23T02:27:42.784Z,62.07
2023-05-23T02:28:42.779Z,62.37
2023-05-23T02:29:42.786Z,62.57
2023-05-23T02:30:42.771Z,62.37
2023-05-23T02:31:42.874Z,62.47
2023-05-23T02:32:42.821Z,62.37
2023-05-23T02:33:42.765Z,62.47
2023-05-23T02:34:42.767Z,62.47
2023-05-23T02:35:42.948Z,62.37
2023-05-23T02:36:42.744Z,62.47
2023-05-23T02:37:42.850Z,62.70
2023-05-23T02:38:42.745Z,63.28
2023-05-23T02:39:42.740Z,62.81
2023-05-23T02:40:42.735Z,62.50
2023-05-23T02:41:42.730Z,62.50
2023-05-23T02:42:42.752Z,62.81
2023-05-23T02:43:43.465Z,62.81
2023-05-23T02:44:42.714Z,63.51
2023-05-23T02:45:43.127Z,64.02
2023-05-23T02:46:42.853Z,63.99
2023-05-23T02:47:42.756Z,62.98
2023-05-23T02:48:42.713Z,61.79
2023-05-23T02:49:42.703Z,62.81
2023-05-23T02:50:42.695Z,64.52
2023-05-23T02:51:42.697Z,61.99
2023-05-23T02:52:42.690Z,61.90
2023-05-23T02:53:42.787Z,64.73
2023-05-23T02:54:42.678Z,63.10
2023-05-23T02:55:42.912Z,64.22
2023-05-23T02:56:42.672Z,64.42
2023-05-23T02:57:42.669Z,64.52
2023-05-23T02:58:42.661Z,64.83
2023-05-23T02:59:42.678Z,64.62
2023-05-23T03:00:42.652Z,64.22
2023-05-23T03:01:42.712Z,63.81
2023-05-23T03:02:42.710Z,64.73
2023-05-23T03:03:42.794Z,64.52
2023-05-23T03:04:42.667Z,64.52
2023-05-23T03:05:42.899Z,64.62
2023-05-23T03:06:42.636Z,64.42
2023-05-23T03:07:42.696Z,65.33
2023-05-23T03:08:42.638Z,65.33
2023-05-23T03:09:42.764Z,66.35
2023-05-23T03:10:42.645Z,66.44
2023-05-23T03:11:42.649Z,65.64
2023-05-23T03:12:42.665Z,66.24
2023-05-23T03:13:42.615Z,63.75
2023-05-23T03:14:42.612Z,64.52
2023-05-23T03:15:42.731Z,63.92
2023-05-23T03:16:42.732Z,62.10
2023-05-23T03:17:42.782Z,62.50
2023-05-23T03:18:42.618Z,61.59
2023-05-23T03:19:42.669Z,61.59
2023-05-23T03:20:42.595Z,61.19
2023-05-23T03:21:42.592Z,61.39
2023-05-23T03:22:42.586Z,62.30
2023-05-23T03:23:42.581Z,62.50
2023-05-23T03:24:42.569Z,61.59
2023-05-23T03:25:42.800Z,61.59
2023-05-23T03:26:42.561Z,61.69
2023-05-23T03:27:42.594Z,61.69
2023-05-23T03:28:42.554Z,61.69
2023-05-23T03:29:42.554Z,61.90
2023-05-23T03:30:42.543Z,62.30
2023-05-23T03:31:42.602Z,63.10
2023-05-23T03:32:42.618Z,62.90
2023-05-23T03:33:42.531Z,64.32
2023-05-23T03:34:42.534Z,63.81
2023-05-23T03:35:42.734Z,63.81
2023-05-23T03:36:42.519Z,63.92
2023-05-23T03:37:42.533Z,64.83
2023-05-23T03:38:42.510Z,64.83
2023-05-23T03:39:42.509Z,64.39
2023-05-23T03:40:42.506Z,64.02
2023-05-23T03:41:42.600Z,64.32
2023-05-23T03:42:42.498Z,64.62
2023-05-23T03:43:42.488Z,64.79
2023-05-23T03:44:42.484Z,64.52
2023-05-23T03:45:42.670Z,64.52
2023-05-23T03:46:42.545Z,64.49
2023-05-23T03:47:42.506Z,64.83
2023-05-23T03:48:42.468Z,66.24
2023-05-23T03:49:42.466Z,66.24
2023-05-23T03:50:42.461Z,64.93
2023-05-23T03:51:42.453Z,65.23
2023-05-23T03:52:42.460Z,65.43
2023-05-23T03:53:42.446Z,66.64
2023-05-23T03:54:42.449Z,65.94
2023-05-23T03:55:42.798Z,66.95
2023-05-23T03:56:42.442Z,66.75
2023-05-23T03:57:42.535Z,66.85
2023-05-23T03:58:42.431Z,66.95
2023-05-23T03:59:42.422Z,66.85
2023-05-23T04:00:42.417Z,67.46
2023-05-23T04:01:42.421Z,67.86
2023-05-23T04:02:42.519Z,68.06
2023-05-23T04:03:42.534Z,68.87
2023-05-23T04:04:42.421Z,68.57
2023-05-23T04:05:42.724Z,68.77
2023-05-23T04:06:42.400Z,67.76
2023-05-23T04:07:42.394Z,66.47
2023-05-23T04:08:42.387Z,66.07
2023-05-23T04:09:42.388Z,66.14
2023-05-23T04:10:42.382Z,65.73
2023-05-23T04:11:42.371Z,65.23
2023-05-23T04:12:42.377Z,65.43
2023-05-23T04:13:42.366Z,66.14
2023-05-23T04:14:42.358Z,66.24
2023-05-23T04:15:42.577Z,65.53
2023-05-23T04:16:42.449Z,66.75
2023-05-23T04:17:42.423Z,66.24
2023-05-23T04:18:42.341Z,66.44
2023-05-23T04:19:42.446Z,67.86
2023-05-23T04:20:42.332Z,67.05
2023-05-23T04:21:42.323Z,66.95
2023-05-23T04:22:42.335Z,66.04
2023-05-23T04:23:42.303Z,66.44
2023-05-23T04:24:42.306Z,65.94
2023-05-23T04:25:42.488Z,66.14
2023-05-23T04:26:42.289Z,66.64
2023-05-23T04:27:42.295Z,65.73
2023-05-23T04:28:42.282Z,66.44
2023-05-23T04:29:42.364Z,66.14
2023-05-23T04:30:42.270Z,66.44
2023-05-23T04:31:42.286Z,66.55
2023-05-23T04:32:42.291Z,66.85
2023-05-23T04:33:42.261Z,67.25
2023-05-23T04:34:42.261Z,68.16
2023-05-23T04:35:42.348Z,67.66
2023-05-23T04:36:42.251Z,67.55
2023-05-23T04:37:42.247Z,67.05
2023-05-23T04:38:42.239Z,66.85
2023-05-23T04:39:42.334Z,67.35
2023-05-23T04:40:42.236Z,67.86
2023-05-23T04:41:42.228Z,67.05
2023-05-23T04:42:42.223Z,66.95
2023-05-23T04:43:42.211Z,67.35
2023-05-23T04:44:42.215Z,68.16
2023-05-23T04:45:42.624Z,68.77
2023-05-23T04:46:42.543Z,68.77
2023-05-23T04:47:42.251Z,68.77
2023-05-23T04:48:42.213Z,68.37
2023-05-23T04:49:42.200Z,67.15
2023-05-23T04:50:42.191Z,67.02
2023-05-23T04:51:42.188Z,68.03
2023-05-23T04:52:42.181Z,68.03
2023-05-23T04:53:42.210Z,66.55
2023-05-23T04:54:42.173Z,67.66
2023-05-23T04:55:42.426Z,66.85
2023-05-23T04:56:42.162Z,66.85
2023-05-23T04:57:42.160Z,66.44
2023-05-23T04:58:42.206Z,67.15
2023-05-23T04:59:42.152Z,67.76
2023-05-23T05:00:42.375Z,68.26
2023-05-23T05:01:42.316Z,69.07
2023-05-23T05:02:42.185Z,68.03
2023-05-23T05:03:42.149Z,68.23
2023-05-23T05:04:42.125Z,68.37
2023-05-23T05:05:42.129Z,67.32
2023-05-23T05:06:42.119Z,66.72
2023-05-23T05:07:42.114Z,67.46
2023-05-23T05:08:42.118Z,67.72
2023-05-23T05:09:42.104Z,67.76
2023-05-23T05:10:42.339Z,68.13
2023-05-23T05:11:42.098Z,67.43
2023-05-23T05:12:42.093Z,67.83
2023-05-23T05:13:42.089Z,67.52
2023-05-23T05:14:42.083Z,67.05
2023-05-23T05:15:42.080Z,67.02
2023-05-23T05:16:42.092Z,66.61
2023-05-23T05:17:42.243Z,65.91
2023-05-23T05:18:42.065Z,66.31
2023-05-23T05:19:42.062Z,66.21
2023-05-23T05:20:42.224Z,65.94
2023-05-23T05:21:42.058Z,66.11
2023-05-23T05:22:42.054Z,65.61
2023-05-23T05:23:42.062Z,66.01
2023-05-23T05:24:42.041Z,65.70
2023-05-23T05:25:42.036Z,66.11
2023-05-23T05:26:42.047Z,66.01
2023-05-23T05:27:42.025Z,66.61
2023-05-23T05:28:42.023Z,66.11
2023-05-23T05:29:42.029Z,66.61
2023-05-23T05:30:42.224Z,66.14
2023-05-23T05:31:42.034Z,66.61
2023-05-23T05:32:42.026Z,67.52
2023-05-23T05:33:42.089Z,66.72
2023-05-23T05:34:41.998Z,66.75
2023-05-23T05:35:41.993Z,66.52
2023-05-23T05:36:41.992Z,67.12
2023-05-23T05:37:41.990Z,66.61
2023-05-23T05:38:41.999Z,67.12
2023-05-23T05:39:41.982Z,66.72
2023-05-23T05:40:42.136Z,66.72
2023-05-23T05:41:41.967Z,66.61
2023-05-23T05:42:41.964Z,66.61
2023-05-23T05:43:41.974Z,66.61
2023-05-23T05:44:42.013Z,66.72
2023-05-23T05:45:41.953Z,67.02
2023-05-23T05:46:41.977Z,67.22
2023-05-23T05:47:42.003Z,66.82
2023-05-23T05:48:41.939Z,67.52
2023-05-23T05:49:42.024Z,66.61
2023-05-23T05:50:42.117Z,67.52
2023-05-23T05:51:41.930Z,66.69
2023-05-23T05:52:41.924Z,67.43
2023-05-23T05:53:41.923Z,67.39
2023-05-23T05:54:41.916Z,67.39
2023-05-23T05:55:41.910Z,66.58
2023-05-23T05:56:41.908Z,67.69
2023-05-23T05:57:41.903Z,67.69
2023-05-23T05:58:41.899Z,67.49
2023-05-23T05:59:41.920Z,66.69
2023-05-23T06:00:42.168Z,67.39
2023-05-23T06:01:41.890Z,66.38
2023-05-23T06:02:41.967Z,67.69
2023-05-23T06:03:42.050Z,68.00
2023-05-23T06:04:41.918Z,68.00
2023-05-23T06:05:41.959Z,68.00
2023-05-23T06:06:41.886Z,68.60
2023-05-23T06:07:41.893Z,68.71
2023-05-23T06:08:41.859Z,68.00
2023-05-23T06:09:41.863Z,67.97
2023-05-23T06:10:42.267Z,67.97
2023-05-23T06:11:41.849Z,66.86
2023-05-23T06:12:41.839Z,66.75
2023-05-23T06:13:41.841Z,66.55
2023-05-23T06:14:41.834Z,66.86
2023-05-23T06:15:41.837Z,67.16
2023-05-23T06:16:41.864Z,66.75
2023-05-23T06:17:41.893Z,67.86
2023-05-23T06:18:41.821Z,69.38
2023-05-23T06:19:41.812Z,67.97
2023-05-23T06:20:41.982Z,67.66
2023-05-23T06:21:41.943Z,68.57
2023-05-23T06:22:41.809Z,67.97
2023-05-23T06:23:41.806Z,68.47
2023-05-23T06:24:41.806Z,68.47
2023-05-23T06:25:41.801Z,68.77
2023-05-23T06:26:41.787Z,68.87
2023-05-23T06:27:41.783Z,69.68
2023-05-23T06:28:41.802Z,68.27
2023-05-23T06:29:41.779Z,69.08
2023-05-23T06:30:42.075Z,69.48
2023-05-23T06:31:41.813Z,69.28
2023-05-23T06:32:41.784Z,69.45
2023-05-23T06:33:41.761Z,68.84
2023-05-23T06:34:41.759Z,68.33
2023-05-23T06:35:41.752Z,68.33
2023-05-23T06:36:41.748Z,67.93
2023-05-23T06:37:41.806Z,67.53
2023-05-23T06:38:41.759Z,67.63
2023-05-23T06:39:41.741Z,68.13
2023-05-23T06:40:41.918Z,67.83
2023-05-23T06:41:41.727Z,67.83
2023-05-23T06:42:41.757Z,67.93
2023-05-23T06:43:41.716Z,67.23
2023-05-23T06:44:41.718Z,67.83
2023-05-23T06:45:41.727Z,67.73
2023-05-23T06:46:41.706Z,68.21
2023-05-23T06:47:41.756Z,68.51
2023-05-23T06:48:41.700Z,68.71
2023-05-23T06:49:41.697Z,68.17
2023-05-23T06:50:42.070Z,68.07
2023-05-23T06:51:41.818Z,67.97
2023-05-23T06:52:41.684Z,68.04
2023-05-23T06:53:41.766Z,67.03
2023-05-23T06:54:41.676Z,66.13
2023-05-23T06:55:41.673Z,66.50
2023-05-23T06:56:41.676Z,66.27
2023-05-23T06:57:41.668Z,64.62
2023-05-23T06:58:41.665Z,64.16
2023-05-23T06:59:41.656Z,62.19
2023-05-23T07:00:42.025Z,61.88
2023-05-23T07:01:41.673Z,60.72
2023-05-23T07:02:41.720Z,58.99
2023-05-23T07:03:41.647Z,58.89
2023-05-23T07:04:41.649Z,59.16
2023-05-23T07:05:41.725Z,58.23
2023-05-23T07:06:41.639Z,58.06
2023-05-23T07:07:41.636Z,57.83
2023-05-23T07:08:41.631Z,57.13
2023-05-23T07:09:41.661Z,57.13
2023-05-23T07:10:42.143Z,55.13
2023-05-23T07:11:41.625Z,56.96
2023-05-23T07:12:41.620Z,56.26
2023-05-23T07:13:41.621Z,56.56
2023-05-23T07:14:41.619Z,57.26
2023-05-23T07:15:41.623Z,57.86
2023-05-23T07:16:41.673Z,58.46
2023-05-23T07:17:41.675Z,56.38
2023-05-23T07:18:41.609Z,57.48
2023-05-23T07:19:41.636Z,57.51
2023-05-23T07:20:41.922Z,58.51
2023-05-23T07:21:41.601Z,58.49
2023-05-23T07:22:41.603Z,57.21
2023-05-23T07:23:41.595Z,57.81
2023-05-23T07:24:41.596Z,57.81
2023-05-23T07:25:47.075Z,58.81
2023-05-23T07:26:41.597Z,57.64
2023-05-23T07:27:41.592Z,57.84
2023-05-23T07:28:41.584Z,59.05
2023-05-23T07:29:41.589Z,57.54
2023-05-23T07:30:41.697Z,57.44
2023-05-23T07:31:41.679Z,57.54
2023-05-23T07:32:41.587Z,57.57
2023-05-23T07:33:41.577Z,57.77
2023-05-23T07:34:41.579Z,57.87
2023-05-23T07:35:41.567Z,58.24
2023-05-23T07:36:41.564Z,58.34
2023-05-23T07:37:41.571Z,59.05
2023-05-23T07:38:41.568Z,59.14
2023-05-23T07:39:41.562Z,59.32
2023-05-23T07:40:41.762Z,58.62
2023-05-23T07:41:41.560Z,57.41
2023-05-23T07:42:41.554Z,57.51
2023-05-23T07:43:41.688Z,58.92
2023-05-23T07:44:41.552Z,58.42
2023-05-23T07:45:41.548Z,59.01
2023-05-23T07:46:41.598Z,59.92
2023-05-23T07:47:41.549Z,59.69
2023-05-23T07:48:41.547Z,59.86
2023-05-23T07:49:41.537Z,58.13
2023-05-23T07:50:41.681Z,57.83
2023-05-23T07:51:41.534Z,56.63
2023-05-23T07:52:41.544Z,57.63
2023-05-23T07:53:41.538Z,58.11
2023-05-23T07:54:41.533Z,55.67
2023-05-23T07:55:41.530Z,55.27
2023-05-23T07:56:41.532Z,52.17
2023-05-23T07:57:41.526Z,50.85
2023-05-23T07:58:41.522Z,50.50
2023-05-23T07:59:41.533Z,49.85
2023-05-23T08:00:41.699Z,50.03
2023-05-23T08:01:41.553Z,48.49
2023-05-23T08:02:41.589Z,45.11
2023-05-23T08:03:41.520Z,46.80
2023-05-23T08:04:41.676Z,45.61
2023-05-23T08:05:41.530Z,45.73
2023-05-23T08:06:51.957Z,45.90
2023-05-23T08:07:41.524Z,46.48
2023-05-23T08:08:41.521Z,45.98
2023-05-23T08:09:41.534Z,45.71
2023-05-23T08:10:41.770Z,46.84
2023-05-23T08:11:41.524Z,48.79
2023-05-23T08:12:41.524Z,48.41
2023-05-23T08:13:41.524Z,48.58
2023-05-23T08:14:50.578Z,48.50
2023-05-23T08:15:41.538Z,48.19
2023-05-23T08:16:41.596Z,47.62
2023-05-23T08:17:41.617Z,46.56
2023-05-23T08:18:41.576Z,44.81
2023-05-23T08:19:41.549Z,43.49
2023-05-23T08:20:41.823Z,42.31
2023-05-23T08:21:41.541Z,42.85
2023-05-23T08:22:41.534Z,43.28
2023-05-23T08:23:41.558Z,44.84
2023-05-23T08:24:41.535Z,45.73
2023-05-23T08:25:41.538Z,45.53
2023-05-23T08:26:41.533Z,46.23
2023-05-23T08:27:41.539Z,46.67
2023-05-23T08:28:41.541Z,48.96
2023-05-23T08:29:41.538Z,48.26
2023-05-23T08:30:41.721Z,48.86
2023-05-23T08:31:41.571Z,49.26
2023-05-23T08:32:41.540Z,49.38
2023-05-23T08:33:41.542Z,49.21
2023-05-23T08:34:41.556Z,49.95
2023-05-23T08:35:41.538Z,50.10
2023-05-23T08:36:41.536Z,51.59
2023-05-23T08:37:41.539Z,52.12
2023-05-23T08:38:41.546Z,52.14
2023-05-23T08:39:41.533Z,52.82
2023-05-23T08:40:41.707Z,51.82
2023-05-23T08:41:41.539Z,52.62
2023-05-23T08:42:41.638Z,52.92
2023-05-23T08:43:41.537Z,53.61
2023-05-23T08:44:41.534Z,53.84
2023-05-23T08:45:41.538Z,54.57
2023-05-23T08:46:41.547Z,54.67
2023-05-23T08:47:41.561Z,55.07
2023-05-23T08:48:41.531Z,54.77
2023-05-23T08:49:41.532Z,54.94
2023-05-23T08:50:41.785Z,56.14
2023-05-23T08:51:41.528Z,55.32
2023-05-23T08:52:41.534Z,54.89
2023-05-23T08:53:41.527Z,54.89
2023-05-23T08:54:41.525Z,54.66
2023-05-23T08:55:41.751Z,54.44
2023-05-23T08:56:41.533Z,53.31
2023-05-23T08:57:41.536Z,51.29
2023-05-23T08:58:41.525Z,51.87
2023-05-23T08:59:41.529Z,52.39
2023-05-23T09:00:41.656Z,52.39
2023-05-23T09:01:41.642Z,52.76
2023-05-23T09:02:41.586Z,52.37
2023-05-23T09:03:41.525Z,52.17
2023-05-23T09:04:41.523Z,52.34
2023-05-23T09:05:41.576Z,52.84
2023-05-23T09:06:41.581Z,52.94
2023-05-23T09:07:41.544Z,52.57
2023-05-23T09:08:41.521Z,52.57
2023-05-23T09:09:41.565Z,52.54
2023-05-23T09:10:41.709Z,53.24
2023-05-23T09:11:41.526Z,54.03
2023-05-23T09:12:41.532Z,53.04
2023-05-23T09:13:41.526Z,53.11
2023-05-23T09:14:41.526Z,53.31
2023-05-23T09:15:41.528Z,52.99
2023-05-23T09:16:41.851Z,53.19
2023-05-23T09:17:41.723Z,53.26
2023-05-23T09:18:41.564Z,54.58
2023-05-23T09:19:41.575Z,54.08
2023-05-23T09:20:41.867Z,54.31
2023-05-23T09:21:41.532Z,54.71
2023-05-23T09:22:41.535Z,55.82
2023-05-23T09:23:41.536Z,55.43
2023-05-23T09:24:41.536Z,56.59
2023-05-23T09:25:41.535Z,56.23
2023-05-23T09:26:41.542Z,55.90
2023-05-23T09:27:41.541Z,55.60
2023-05-23T09:28:41.546Z,55.80
2023-05-23T09:29:41.556Z,55.50
2023-05-23T09:30:41.761Z,55.30
2023-05-23T09:31:41.638Z,56.00
2023-05-23T09:32:41.603Z,56.82
2023-05-23T09:33:41.551Z,57.22
2023-05-23T09:34:41.550Z,57.12
2023-05-23T09:35:41.554Z,57.45
2023-05-23T09:36:41.548Z,58.14
2023-05-23T09:37:41.572Z,57.75
2023-05-23T09:38:41.557Z,57.84
2023-05-23T09:39:41.567Z,57.92
2023-05-23T09:40:41.808Z,57.94
2023-05-23T09:41:41.575Z,56.82
2023-05-23T09:42:41.553Z,57.12
2023-05-23T09:43:41.554Z,57.62
2023-05-23T09:44:41.552Z,57.71
2023-05-23T09:45:41.554Z,58.41
2023-05-23T09:46:41.598Z,57.84
2023-05-23T09:47:41.565Z,57.87
2023-05-23T09:48:41.559Z,58.67
2023-05-23T09:49:41.561Z,58.54
2023-05-23T09:50:41.751Z,57.94
2023-05-23T09:51:41.564Z,58.34
2023-05-23T09:52:41.561Z,58.14
2023-05-23T09:53:41.561Z,58.74
2023-05-23T09:54:41.567Z,57.84
2023-05-23T09:55:41.567Z,59.06
2023-05-23T09:56:41.578Z,58.87
2023-05-23T09:57:41.563Z,59.00
2023-05-23T09:58:41.563Z,59.72
2023-05-23T09:59:41.578Z,59.42
2023-05-23T10:00:41.839Z,59.82
2023-05-23T10:01:41.609Z,58.92
2023-05-23T10:02:41.603Z,60.12
2023-05-23T10:03:41.573Z,58.59
2023-05-23T10:04:41.641Z,58.70
2023-05-23T10:05:41.576Z,58.67
2023-05-23T10:06:41.565Z,59.56
2023-05-23T10:07:41.571Z,57.84
2023-05-23T10:08:41.571Z,57.62
2023-05-23T10:09:41.614Z,57.62
2023-05-23T10:10:41.821Z,56.92
2023-05-23T10:11:41.571Z,57.32
2023-05-23T10:12:41.594Z,57.29
2023-05-23T10:13:41.586Z,55.67
2023-05-23T10:14:41.572Z,55.38
2023-05-23T10:15:41.573Z,56.04
2023-05-23T10:16:41.622Z,54.95
2023-05-23T10:17:41.633Z,55.05
2023-05-23T10:18:41.580Z,54.72
2023-05-23T10:19:41.621Z,54.46
2023-05-23T10:20:41.942Z,53.98
2023-05-23T10:21:42.333Z,55.33
2023-05-23T10:22:41.578Z,55.93
2023-05-23T10:23:41.579Z,56.15
2023-05-23T10:24:41.581Z,57.37
2023-05-23T10:25:41.581Z,58.87
2023-05-23T10:26:41.584Z,57.57
2023-05-23T10:27:41.595Z,58.57
2023-05-23T10:28:41.581Z,57.17
2023-05-23T10:29:41.598Z,58.80
2023-05-23T10:30:41.994Z,58.59
2023-05-23T10:31:41.667Z,59.39
2023-05-23T10:32:41.599Z,59.39
2023-05-23T10:33:41.588Z,58.80
2023-05-23T10:34:41.591Z,57.10
2023-05-23T10:35:41.671Z,57.90
2023-05-23T10:36:41.592Z,58.23
2023-05-23T10:37:41.584Z,59.65
2023-05-23T10:38:41.589Z,60.08
2023-05-23T10:39:41.586Z,60.97
2023-05-23T10:40:41.937Z,61.27
2023-05-23T10:41:41.583Z,61.57
2023-05-23T10:42:41.598Z,61.94
2023-05-23T10:43:41.598Z,61.15
2023-05-23T10:44:41.595Z,60.72
2023-05-23T10:45:41.611Z,60.72
2023-05-23T10:46:41.598Z,61.22
2023-05-23T10:47:41.622Z,62.41
2023-05-23T10:48:41.590Z,63.61
2023-05-23T10:49:41.621Z,63.08
2023-05-23T10:50:42.129Z,63.51
2023-05-23T10:51:41.590Z,64.34
2023-05-23T10:52:41.650Z,65.04
2023-05-23T10:53:41.628Z,65.77
2023-05-23T10:54:41.592Z,66.70
2023-05-23T10:55:41.592Z,67.53
2023-05-23T10:56:41.589Z,68.10
2023-05-23T10:57:41.588Z,67.72
2023-05-23T10:58:41.604Z,67.10
2023-05-23T10:59:41.584Z,67.19
2023-05-23T11:00:41.899Z,67.60
2023-05-23T11:01:41.606Z,66.50
2023-05-23T11:02:41.643Z,66.73
2023-05-23T11:03:41.774Z,67.46
2023-05-23T11:04:41.607Z,67.83
2023-05-23T11:05:41.590Z,67.72
2023-05-23T11:06:41.588Z,66.33
2023-05-23T11:07:41.688Z,67.33
2023-05-23T11:08:47.769Z,67.72
2023-05-23T11:09:41.593Z,67.46
2023-05-23T11:10:41.817Z,67.36
2023-05-23T11:11:41.590Z,68.76
2023-05-23T11:12:41.602Z,68.86
2023-05-23T11:13:41.592Z,67.86
2023-05-23T11:14:41.589Z,68.96
2023-05-23T11:15:41.595Z,68.26
2023-05-23T11:16:41.736Z,69.19
2023-05-23T11:17:41.610Z,69.19
2023-05-23T11:18:41.588Z,69.29
2023-05-23T11:19:41.650Z,69.19
2023-05-23T11:20:41.816Z,70.49
2023-05-23T11:21:41.594Z,70.19
2023-05-23T11:22:41.588Z,70.09
2023-05-23T11:23:41.637Z,69.79
2023-05-23T11:24:41.585Z,69.12
2023-05-23T11:25:41.584Z,69.23
2023-05-23T11:26:41.584Z,69.19
2023-05-23T11:27:41.615Z,69.79
2023-05-23T11:28:41.583Z,70.39
2023-05-23T11:29:41.604Z,69.29
2023-05-23T11:30:41.999Z,69.26
2023-05-23T11:31:41.610Z,68.89
2023-05-23T11:32:41.619Z,69.49
2023-05-23T11:33:41.623Z,69.46
2023-05-23T11:34:41.607Z,68.89
2023-05-23T11:35:41.658Z,69.09
2023-05-23T11:36:41.633Z,69.49
2023-05-23T11:37:41.597Z,70.12
2023-05-23T11:38:41.589Z,70.12
2023-05-23T11:39:41.655Z,69.02
2023-05-23T11:40:42.277Z,69.23
2023-05-23T11:41:41.682Z,70.06
2023-05-23T11:42:41.634Z,70.69
2023-05-23T11:43:41.669Z,70.89
2023-05-23T11:44:41.708Z,70.89
2023-05-23T11:45:41.719Z,71.09
2023-05-23T11:46:41.640Z,71.12
2023-05-23T11:47:41.688Z,72.06
2023-05-23T11:48:41.719Z,71.96
2023-05-23T11:49:41.653Z,72.36
2023-05-23T11:50:41.902Z,72.36
2023-05-23T11:51:41.585Z,71.43
2023-05-23T11:52:41.573Z,71.43
2023-05-23T11:53:41.570Z,71.33
2023-05-23T11:54:41.573Z,71.33
2023-05-23T11:55:41.581Z,71.63
2023-05-23T11:56:41.570Z,71.53
2023-05-23T11:57:41.565Z,70.83
2023-05-23T11:58:41.596Z,71.73
2023-05-23T11:59:41.566Z,70.73
2023-05-23T12:00:41.782Z,71.43
2023-05-23T12:01:41.591Z,72.06
2023-05-23T12:02:41.809Z,72.23
2023-05-23T12:03:41.706Z,72.47
2023-05-23T12:04:41.628Z,72.33
2023-05-23T12:05:41.565Z,72.50
2023-05-23T12:06:41.584Z,71.39
2023-05-23T12:07:41.615Z,70.79
2023-05-23T12:08:41.593Z,70.59
2023-05-23T12:09:41.549Z,70.46
2023-05-23T12:10:41.881Z,69.59
2023-05-23T12:11:41.552Z,70.39
2023-05-23T12:12:41.551Z,70.69
2023-05-23T12:13:41.552Z,71.09
2023-05-23T12:14:41.555Z,71.53
2023-05-23T12:15:41.588Z,71.83
2023-05-23T12:16:41.615Z,72.23
2023-05-23T12:17:41.562Z,72.27
2023-05-23T12:18:41.541Z,71.93
2023-05-23T12:19:41.641Z,72.56
2023-05-23T12:20:41.764Z,72.86
2023-05-23T12:21:41.545Z,72.56
2023-05-23T12:22:41.542Z,72.16
2023-05-23T12:23:41.537Z,72.43
2023-05-23T12:24:41.540Z,73.24
2023-05-23T12:25:41.716Z,73.33
2023-05-23T12:26:41.551Z,73.84
2023-05-23T12:27:41.597Z,73.17
2023-05-23T12:28:41.555Z,74.07
2023-05-23T12:29:41.561Z,73.77
2023-05-23T12:30:41.696Z,75.42
2023-05-23T12:31:41.613Z,74.71
2023-05-23T12:32:41.609Z,75.51
2023-05-23T12:33:41.519Z,75.85
2023-05-23T12:34:41.521Z,75.55
2023-05-23T12:35:41.668Z,75.42
2023-05-23T12:36:48.607Z,75.82
2023-05-23T12:37:41.532Z,75.68
2023-05-23T12:38:41.521Z,75.48
2023-05-23T12:39:41.512Z,73.87
2023-05-23T12:40:41.511Z,74.77
2023-05-23T12:41:41.512Z,73.67
2023-05-23T12:42:41.513Z,73.77
2023-05-23T12:43:41.504Z,75.38
2023-05-23T12:44:41.531Z,74.18
2023-05-23T12:45:41.755Z,74.68
2023-05-23T12:46:41.530Z,75.48
2023-05-23T12:47:41.549Z,75.18
2023-05-23T12:48:41.499Z,74.68
2023-05-23T12:49:41.497Z,74.27
2023-05-23T12:50:41.508Z,75.82
2023-05-23T12:51:41.496Z,75.82
2023-05-23T12:52:41.505Z,76.52